Time;durP1;ratioP1;P1;durP2;ratioP2;P2;SDS_P1;SDS_P2;PMS_P1;PMS_P2;Temp;Humidity;BMP_temperature;BMP_pressure;BME280_temperature;BME280_humidity;BME280_pressure;Samples;Min_cycle;Max_cycle;Signal;HPM_P1;HPM_P2
2024/01/18 00:06:31;;;;;;;13.40;6.00;;;;;;;-1.84;53.24;99886.15;102789;1285;604908;-55
2024/01/18 00:08:59;;;;;;;16.90;6.80;;;;;;;-1.13;51.73;99859.01;104565;1267;122527;-55
2024/01/18 00:11:27;;;;;;;18.00;6.70;;;;;;;-1.15;51.72;99855.33;104820;1265;59816;-55
2024/01/18 00:13:55;;;;;;;15.80;7.00;;;;;;;-1.21;51.89;99851.76;104309;1266;72306;-55
2024/01/18 00:16:22;;;;;;;13.50;5.00;;;;;;;-1.29;51.94;99849.48;104390;1270;68876;-55
2024/01/18 00:18:50;;;;;;;11.40;5.50;;;;;;;-1.36;52.22;99840.14;104455;1267;70545;-55
2024/01/18 00:21:18;;;;;;;13.80;6.10;;;;;;;-1.43;53.01;99828.20;104456;1266;59346;-55
2024/01/18 00:23:45;;;;;;;14.80;7.80;;;;;;;-1.48;53.68;99818.24;106978;1266;59718;-55
2024/01/18 00:26:13;;;;;;;13.40;6.60;;;;;;;-1.55;54.03;99804.41;104472;1266;69708;-55
2024/01/18 00:28:40;;;;;;;13.50;4.90;;;;;;;-1.63;54.28;99787.52;104441;1270;70356;-56
2024/01/18 00:31:08;;;;;;;11.80;5.10;;;;;;;-1.68;54.57;99778.78;104434;1266;72699;-52
2024/01/18 00:33:35;;;;;;;16.30;5.70;;;;;;;-1.73;54.69;99770.87;104660;1272;59669;-55
2024/01/18 00:36:04;;;;;;;12.30;5.20;;;;;;;-1.78;54.76;99768.01;104415;1266;59712;-54
2024/01/18 00:38:31;;;;;;;13.10;5.60;;;;;;;-1.84;54.94;99759.45;104408;1265;71765;-55
2024/01/18 00:40:59;;;;;;;11.10;5.60;;;;;;;-1.89;55.11;99749.48;104838;1271;72620;-55
2024/01/18 00:43:27;;;;;;;10.70;4.00;;;;;;;-1.91;55.30;99727.59;104351;1269;72707;-55
2024/01/18 00:45:54;;;;;;;13.20;6.50;;;;;;;-1.93;55.54;99718.70;104423;1271;59695;-56
2024/01/18 00:48:22;;;;;;;12.30;5.90;;;;;;;-1.94;55.65;99720.11;104485;1270;59588;-56
2024/01/18 00:50:50;;;;;;;11.60;3.40;;;;;;;-1.93;55.77;99714.77;104474;1271;72387;-55
2024/01/18 00:53:17;;;;;;;12.10;4.40;;;;;;;-1.87;55.88;99705.56;104391;1270;68758;-56
2024/01/18 00:55:45;;;;;;;13.70;4.70;;;;;;;-1.77;55.85;99696.40;104459;1266;73615;-54
2024/01/18 00:58:13;;;;;;;14.60;3.60;;;;;;;-1.69;55.85;99687.64;104373;1269;59673;-55
2024/01/18 01:00:41;;;;;;;14.70;5.00;;;;;;;-1.60;55.89;99689.70;104547;1271;59562;-54
2024/01/18 01:03:08;;;;;;;12.20;4.60;;;;;;;-1.51;55.99;99678.67;104612;1266;73038;-55
2024/01/18 01:05:36;;;;;;;11.20;4.30;;;;;;;-1.41;56.00;99665.71;104437;1265;70110;-55
2024/01/18 01:08:04;;;;;;;10.50;5.00;;;;;;;-1.36;56.16;99658.10;104743;1272;71803;-53
2024/01/18 01:10:32;;;;;;;16.80;6.30;;;;;;;-1.33;56.27;99653.48;104815;1271;60597;-54
2024/01/18 01:13:00;;;;;;;9.90;4.90;;;;;;;-1.32;56.21;99645.38;104468;1267;59901;-54
2024/01/18 01:15:27;;;;;;;10.90;4.60;;;;;;;-1.32;56.31;99635.87;104407;1271;73006;-54
2024/01/18 01:17:55;;;;;;;18.40;7.60;;;;;;;-1.33;56.30;99623.02;105022;1266;70314;-54
2024/01/18 01:20:23;;;;;;;15.80;6.70;;;;;;;-1.36;56.39;99610.57;104424;1267;73288;-54
2024/01/18 01:22:51;;;;;;;13.60;6.30;;;;;;;-1.38;56.49;99597.79;104336;1272;59635;-55
2024/01/18 01:25:18;;;;;;;11.50;4.30;;;;;;;-1.40;56.65;99579.48;104370;1266;59601;-53
2024/01/18 01:27:46;;;;;;;11.20;5.10;;;;;;;-1.43;56.77;99572.18;104518;1271;73062;-54
2024/01/18 01:30:14;;;;;;;10.80;4.50;;;;;;;-1.45;56.89;99568.32;104510;1266;69071;-55
2024/01/18 01:32:42;;;;;;;13.90;5.20;;;;;;;-1.47;56.91;99563.61;104584;1269;72677;-55
2024/01/18 01:35:11;;;;;;;16.40;5.00;;;;;;;-1.49;57.07;99561.30;104471;1269;59980;-56
2024/01/18 01:37:38;;;;;;;15.70;8.60;;;;;;;-1.51;57.16;99558.07;104678;1271;59760;-55
2024/01/18 01:40:07;;;;;;;11.90;4.30;;;;;;;-1.51;57.28;99559.14;104453;1270;72781;-54
2024/01/18 01:42:35;;;;;;;15.70;6.80;;;;;;;-1.51;57.51;99549.52;104744;1271;70080;-55
2024/01/18 01:45:04;;;;;;;12.20;4.90;;;;;;;-1.51;57.48;99539.34;104462;1271;72438;-55
2024/01/18 01:47:31;;;;;;;13.40;6.10;;;;;;;-1.50;57.59;99535.52;104835;1271;59530;-55
2024/01/18 01:49:59;;;;;;;11.50;4.50;;;;;;;-1.49;57.63;99526.88;104424;1271;60887;-55
2024/01/18 01:52:28;;;;;;;10.40;3.60;;;;;;;-1.42;57.69;99526.92;104822;1274;74928;-56
2024/01/18 01:54:56;;;;;;;10.80;4.80;;;;;;;-1.29;57.59;99519.47;104949;1271;69985;-56
2024/01/18 01:57:23;;;;;;;12.90;4.70;;;;;;;-1.18;57.59;99506.38;104944;1270;71332;-55
2024/01/18 01:59:52;;;;;;;12.80;5.20;;;;;;;-1.03;57.65;99505.02;105105;1268;60850;-56
2024/01/18 02:02:22;;;;;;;11.90;4.40;;;;;;;-0.92;57.71;99497.42;104867;1274;59702;-56
2024/01/18 02:04:51;;;;;;;12.30;4.90;;;;;;;-0.83;57.66;99488.27;104951;1265;71762;-54
2024/01/18 02:07:19;;;;;;;16.90;5.00;;;;;;;-0.74;57.74;99491.26;104950;1259;69905;-54
2024/01/18 02:09:47;;;;;;;11.60;4.90;;;;;;;-0.65;57.83;99473.94;104946;1263;71393;-55
2024/01/18 02:12:14;;;;;;;13.70;5.50;;;;;;;-0.59;57.92;99483.45;104904;1260;59807;-55
2024/01/18 02:14:43;;;;;;;15.60;7.10;;;;;;;-0.58;57.94;99466.16;105096;1261;59680;-56
2024/01/18 02:17:10;;;;;;;16.30;6.20;;;;;;;-0.56;57.92;99451.10;104890;1268;73379;-56
2024/01/18 02:19:38;;;;;;;11.10;4.40;;;;;;;-0.56;57.90;99434.75;105099;1266;70317;-55
2024/01/18 02:22:05;;;;;;;14.20;5.30;;;;;;;-0.58;57.87;99432.45;104902;1264;71470;-55
2024/01/18 02:24:37;;;;;;;10.20;4.80;;;;;;;-0.60;58.01;99421.35;104889;1264;59710;-54
2024/01/18 02:27:05;;;;;;;13.60;5.40;;;;;;;-0.64;58.14;99416.17;105114;1265;59778;-55
2024/01/18 02:29:33;;;;;;;19.50;7.20;;;;;;;-0.66;58.40;99408.73;104905;1259;73053;-55
2024/01/18 02:32:00;;;;;;;16.70;5.30;;;;;;;-0.65;58.50;99402.49;105076;1263;70089;-55
2024/01/18 02:34:28;;;;;;;15.10;6.80;;;;;;;-0.69;58.62;99387.15;104885;1261;72490;-55
2024/01/18 02:36:56;;;;;;;12.70;5.70;;;;;;;-0.71;58.93;99375.90;104874;1260;60078;-57
2024/01/18 02:39:23;;;;;;;12.00;5.10;;;;;;;-0.71;59.21;99358.16;104870;1263;59994;-55
2024/01/18 02:41:51;;;;;;;12.50;4.00;;;;;;;-0.69;59.45;99352.92;104866;1264;62809;-55
2024/01/18 02:44:18;;;;;;;10.90;4.80;;;;;;;-0.63;59.65;99344.84;104949;1263;68933;-55
2024/01/18 02:46:47;;;;;;;11.50;4.50;;;;;;;-0.49;59.81;99327.92;104861;1261;72706;-55
2024/01/18 02:49:14;;;;;;;12.20;6.50;;;;;;;-0.36;59.98;99326.72;104981;1263;59672;-56
2024/01/18 02:51:43;;;;;;;13.00;5.90;;;;;;;-0.24;60.03;99318.70;104934;1263;59680;-57
2024/01/18 02:54:10;;;;;;;19.00;5.50;;;;;;;-0.11;60.09;99310.08;104949;1273;64613;-56
2024/01/18 02:56:38;;;;;;;11.90;5.30;;;;;;;0.02;60.23;99315.63;105247;1263;60415;-56
2024/01/18 02:59:06;;;;;;;11.70;4.50;;;;;;;0.10;60.47;99304.85;104941;1261;71505;-56
2024/01/18 03:01:33;;;;;;;13.10;5.90;;;;;;;0.12;60.56;99297.48;105509;1260;59821;-58
2024/01/18 03:04:01;;;;;;;14.50;5.90;;;;;;;0.12;60.54;99288.20;104875;1261;59634;-56
2024/01/18 03:06:29;;;;;;;13.20;6.10;;;;;;;0.13;60.77;99284.67;104867;1259;64131;-57
2024/01/18 03:08:56;;;;;;;12.50;6.80;;;;;;;0.14;60.83;99291.52;104961;1266;70630;-58
2024/01/18 03:11:24;;;;;;;15.00;7.00;;;;;;;0.14;60.96;99296.16;104829;1264;71225;-56
2024/01/18 03:13:52;;;;;;;13.20;4.80;;;;;;;0.15;61.20;99293.05;105517;1263;60383;-59
2024/01/18 03:16:20;;;;;;;16.10;6.90;;;;;;;0.16;61.32;99285.01;105596;1260;59660;-57
2024/01/18 03:18:47;;;;;;;18.80;7.90;;;;;;;0.17;61.28;99276.04;104772;1260;73570;-57
2024/01/18 03:21:15;;;;;;;14.90;7.20;;;;;;;0.17;61.41;99265.70;104806;1264;70088;-58
2024/01/18 03:23:43;;;;;;;16.60;6.80;;;;;;;0.17;61.36;99263.63;104906;1266;62457;-56
2024/01/18 03:26:12;;;;;;;12.10;5.20;;;;;;;0.17;61.57;99257.20;104922;1263;59761;-57
2024/01/18 03:28:39;;;;;;;12.70;4.70;;;;;;;0.24;61.57;99249.77;105912;1263;59697;-56
2024/01/18 03:31:11;;;;;;;14.30;5.40;;;;;;;0.38;61.52;99244.86;104921;1263;64113;-58
2024/01/18 03:33:39;;;;;;;13.90;6.60;;;;;;;0.50;61.43;99232.09;105092;1264;61544;-56
2024/01/18 03:36:08;;;;;;;20.40;5.50;;;;;;;0.60;61.44;99227.55;105131;1265;62527;-57
2024/01/18 03:38:36;;;;;;;17.50;7.50;;;;;;;0.71;61.50;99221.73;105231;1259;59819;-55
2024/01/18 03:41:03;;;;;;;13.10;6.40;;;;;;;0.83;61.65;99209.68;105383;1260;59609;-54
2024/01/18 03:43:31;;;;;;;14.30;5.40;;;;;;;0.98;61.80;99206.36;104924;1261;72964;-57
2024/01/18 03:45:58;;;;;;;13.10;5.60;;;;;;;1.09;61.97;99199.15;104857;1258;60142;-58
2024/01/18 03:48:26;;;;;;;14.70;6.60;;;;;;;1.16;62.09;99191.63;104866;1264;62440;-58
2024/01/18 03:50:54;;;;;;;17.70;7.00;;;;;;;1.21;62.29;99190.28;105498;1261;59828;-57
2024/01/18 03:53:22;;;;;;;19.20;8.80;;;;;;;1.30;62.45;99181.51;104934;1261;59736;-58
2024/01/18 03:55:50;;;;;;;16.40;7.50;;;;;;;1.35;62.62;99174.80;105556;1263;64118;-56
2024/01/18 03:58:18;;;;;;;20.80;8.00;;;;;;;1.38;62.65;99168.38;104906;1264;61533;-56
2024/01/18 04:00:45;;;;;;;20.40;7.60;;;;;;;1.39;62.81;99165.38;104891;1261;63840;-56
2024/01/18 04:03:13;;;;;;;15.80;7.10;;;;;;;1.40;62.98;99164.96;104792;1264;59746;-59
2024/01/18 04:05:41;;;;;;;16.70;6.00;;;;;;;1.46;62.91;99159.61;105946;1261;59647;-56
2024/01/18 04:08:09;;;;;;;12.70;4.80;;;;;;;1.57;62.78;99155.60;105056;1258;64128;-58
2024/01/18 04:10:36;;;;;;;16.40;7.30;;;;;;;1.68;62.77;99148.36;104902;1265;61414;-56
2024/01/18 04:13:04;;;;;;;12.20;4.80;;;;;;;1.77;62.79;99142.81;105254;1258;63812;-57
2024/01/18 04:15:31;;;;;;;13.00;5.20;;;;;;;1.87;62.92;99136.29;105138;1262;60448;-57
2024/01/18 04:17:59;;;;;;;15.20;7.90;;;;;;;1.97;62.85;99135.65;105633;1261;60448;-57
2024/01/18 04:20:28;;;;;;;14.40;6.00;;;;;;;2.02;63.01;99135.85;105134;1258;64855;-58
2024/01/18 04:22:56;;;;;;;19.20;8.50;;;;;;;2.07;63.10;99134.84;105739;1260;61478;-57
2024/01/18 04:25:24;;;;;;;13.20;5.60;;;;;;;2.13;63.35;99128.75;105099;1255;62944;-58
2024/01/18 04:27:51;;;;;;;16.60;6.10;;;;;;;2.20;63.43;99124.98;105235;1254;60556;-58
2024/01/18 04:30:19;;;;;;;19.00;6.50;;;;;;;2.22;63.31;99122.98;105222;1254;62204;-56
2024/01/18 04:32:47;;;;;;;11.60;6.40;;;;;;;2.21;63.28;99117.67;105346;1258;64913;-60
2024/01/18 04:35:14;;;;;;;17.10;6.70;;;;;;;2.17;63.27;99116.36;105151;1254;62780;-61
2024/01/18 04:37:42;;;;;;;16.80;8.70;;;;;;;2.13;63.33;99118.00;105148;1257;64214;-58
2024/01/18 04:40:10;;;;;;;15.20;6.60;;;;;;;2.10;63.33;99113.67;105208;1257;60905;-60
2024/01/18 04:42:38;;;;;;;12.70;5.60;;;;;;;2.13;63.26;99115.04;105112;1254;60535;-58
2024/01/18 04:45:07;;;;;;;11.40;4.30;;;;;;;2.21;63.18;99112.95;107172;1259;64889;-61
2024/01/18 04:47:34;;;;;;;13.00;5.60;;;;;;;2.32;63.19;99111.55;105605;1254;61495;-57
2024/01/18 04:50:03;;;;;;;14.20;7.60;;;;;;;2.43;63.26;99105.51;105223;1259;63731;-59
2024/01/18 04:52:32;;;;;;;15.20;5.80;;;;;;;2.58;63.38;99100.85;105647;1260;60471;-59
2024/01/18 04:55:04;;;;;;;11.10;4.40;;;;;;;2.72;63.51;99093.27;105141;1254;60493;-58
2024/01/18 04:57:32;;;;;;;19.60;7.50;;;;;;;2.80;63.59;99091.73;105213;1265;65380;-59
2024/01/18 05:00:00;;;;;;;18.20;6.60;;;;;;;2.85;63.70;99091.61;105692;1254;61332;-59
2024/01/18 05:02:28;;;;;;;17.00;6.30;;;;;;;2.89;63.74;99089.23;105157;1257;64939;-58
2024/01/18 05:04:55;;;;;;;16.50;6.00;;;;;;;2.91;63.82;99081.24;105204;1260;60416;-59
2024/01/18 05:07:23;;;;;;;14.40;6.30;;;;;;;2.93;63.70;99069.90;105230;1260;60366;-60
2024/01/18 05:09:51;;;;;;;11.70;5.30;;;;;;;2.94;63.68;99059.93;105182;1259;63681;-60
2024/01/18 05:12:19;;;;;;;14.90;7.50;;;;;;;2.93;63.66;99061.75;105021;1254;61540;-59
2024/01/18 05:14:46;;;;;;;14.00;5.40;;;;;;;2.89;63.65;99065.16;105087;1257;63776;-63
2024/01/18 05:17:16;;;;;;;11.60;5.40;;;;;;;2.86;63.67;99063.13;105150;1263;61889;-59
2024/01/18 05:19:43;;;;;;;11.90;6.50;;;;;;;2.83;63.67;99055.03;105019;1259;60388;-59
2024/01/18 05:22:11;;;;;;;18.60;5.60;;;;;;;2.82;63.87;99042.25;105125;1259;64888;-58
2024/01/18 05:24:39;;;;;;;9.70;5.10;;;;;;;2.90;63.83;99030.58;104983;1258;61406;-59
2024/01/18 05:27:07;;;;;;;12.60;5.60;;;;;;;3.01;63.72;99018.93;105343;1257;63776;-58
2024/01/18 05:29:35;;;;;;;13.30;5.50;;;;;;;3.10;63.74;99024.87;107032;1258;60423;-58
2024/01/18 05:32:03;;;;;;;12.30;5.50;;;;;;;3.20;63.91;99023.48;105164;1260;60648;-58
2024/01/18 05:34:30;;;;;;;12.30;4.60;;;;;;;3.35;64.19;99012.36;105112;1258;65387;-60
2024/01/18 05:36:58;;;;;;;10.90;4.40;;;;;;;3.50;64.35;99016.48;105163;1260;61374;-60
2024/01/18 05:39:27;;;;;;;11.30;5.50;;;;;;;3.67;64.41;99018.54;105664;1258;63759;-60
2024/01/18 05:41:55;;;;;;;9.90;5.30;;;;;;;3.80;64.66;99012.17;105575;1254;60396;-63
2024/01/18 05:44:22;;;;;;;12.80;4.30;;;;;;;3.90;64.75;99004.85;104915;1257;60496;-58
2024/01/18 05:46:51;;;;;;;11.90;5.80;;;;;;;3.94;64.75;98998.89;104943;1258;65047;-58
2024/01/18 05:49:18;;;;;;;10.40;4.00;;;;;;;3.96;64.79;98992.11;108886;1256;61194;-58
2024/01/18 05:51:46;;;;;;;7.80;4.40;;;;;;;3.98;65.07;98982.59;108954;1257;72422;-58
2024/01/18 05:54:13;;;;;;;10.90;3.80;;;;;;;4.01;65.28;98970.90;109025;1254;58566;-60
2024/01/18 05:56:41;;;;;;;10.10;3.50;;;;;;;4.11;65.38;98965.27;108485;1254;58397;-58
2024/01/18 05:59:09;;;;;;;9.00;4.10;;;;;;;4.25;65.46;98966.83;105435;1259;64865;-58
2024/01/18 06:01:36;;;;;;;10.40;4.30;;;;;;;4.39;65.67;98971.04;105146;1257;60566;-58
2024/01/18 06:04:04;;;;;;;6.90;2.50;;;;;;;4.52;66.11;98960.45;105132;1254;64235;-58
2024/01/18 06:06:32;;;;;;;9.30;4.00;;;;;;;4.65;66.26;98950.23;105149;1257;60502;-56
2024/01/18 06:08:59;;;;;;;17.20;6.00;;;;;;;4.74;66.51;98948.45;105613;1257;60444;-57
2024/01/18 06:11:27;;;;;;;12.20;5.00;;;;;;;4.80;66.71;98950.05;105197;1254;64971;-58
2024/01/18 06:13:54;;;;;;;10.30;4.30;;;;;;;4.86;66.84;98953.96;105254;1260;60457;-57
2024/01/18 06:16:22;;;;;;;8.40;3.30;;;;;;;4.86;66.99;98947.83;105870;1255;63769;-56
2024/01/18 06:18:49;;;;;;;10.50;4.20;;;;;;;4.90;67.16;98944.93;105089;1260;60410;-56
2024/01/18 06:21:17;;;;;;;10.20;4.80;;;;;;;4.99;67.04;98946.13;105209;1258;60346;-57
2024/01/18 06:23:45;;;;;;;7.70;3.00;;;;;;;5.10;67.01;98943.58;105870;1254;64848;-61
2024/01/18 06:26:13;;;;;;;10.20;5.00;;;;;;;5.20;67.02;98938.59;105186;1254;61446;-61
2024/01/18 06:28:40;;;;;;;17.00;11.40;;;;;;;5.29;67.07;98936.48;105346;1255;64210;-58
2024/01/18 06:31:08;;;;;;;9.60;4.20;;;;;;;5.34;67.09;98938.95;105152;1260;60560;-58
2024/01/18 06:33:36;;;;;;;12.20;5.50;;;;;;;5.36;67.21;98941.59;105478;1255;60539;-66
2024/01/18 06:36:05;;;;;;;15.60;4.90;;;;;;;5.38;67.34;98942.45;105514;1259;64999;-60
2024/01/18 06:38:35;;;;;;;12.00;5.20;;;;;;;5.39;67.37;98938.91;105514;1256;61979;-61
2024/01/18 06:41:03;;;;;;;9.40;3.90;;;;;;;5.41;67.35;98926.23;105056;1259;64223;-59
2024/01/18 06:43:31;;;;;;;8.60;4.00;;;;;;;5.48;67.17;98913.74;105119;1257;60562;-61
2024/01/18 06:45:59;;;;;;;9.60;4.30;;;;;;;5.54;67.01;98910.60;105159;1259;60562;-60
2024/01/18 06:48:27;;;;;;;9.00;4.00;;;;;;;5.61;66.94;98906.66;105103;1259;63632;-61
2024/01/18 06:50:55;;;;;;;11.20;5.30;;;;;;;5.71;66.67;98907.55;105072;1259;60536;-62
2024/01/18 06:53:23;;;;;;;16.70;10.30;;;;;;;5.76;66.65;98899.64;107284;1258;62507;-59
2024/01/18 06:55:52;;;;;;;10.20;5.60;;;;;;;5.77;66.68;98887.93;105197;1257;60621;-59
2024/01/18 06:58:20;;;;;;;15.10;6.30;;;;;;;5.75;66.71;98887.58;105194;1254;62088;-60
2024/01/18 07:00:47;;;;;;;8.30;4.10;;;;;;;5.72;66.76;98882.15;105094;1254;63852;-59
2024/01/18 07:03:15;;;;;;;9.40;4.50;;;;;;;5.80;66.59;98884.63;109084;1254;72360;-56
2024/01/18 07:05:43;;;;;;;9.40;5.70;;;;;;;5.88;66.39;98878.21;108362;1256;75314;-60
2024/01/18 07:08:10;;;;;;;11.00;3.70;;;;;;;5.97;66.23;98879.38;105181;1260;60322;-58
2024/01/18 07:10:42;;;;;;;9.20;3.60;;;;;;;6.05;66.03;98878.19;105384;1257;60648;-59
2024/01/18 07:13:09;;;;;;;17.30;10.50;;;;;;;6.08;66.04;98880.52;105257;1254;63721;-61
2024/01/18 07:15:37;;;;;;;8.80;4.40;;;;;;;6.07;66.09;98882.48;106373;1254;61417;-55
2024/01/18 07:18:05;;;;;;;14.00;10.30;;;;;;;6.06;66.06;98887.17;105200;1257;74913;-59
2024/01/18 07:20:32;;;;;;;8.60;4.30;;;;;;;6.06;66.06;98892.17;105552;1256;60565;-62
2024/01/18 07:23:00;;;;;;;8.60;4.70;;;;;;;6.09;65.82;98879.92;105223;1260;60480;-61
2024/01/18 07:25:28;;;;;;;12.40;8.00;;;;;;;6.12;65.62;98879.48;105150;1260;64925;-58
2024/01/18 07:27:56;;;;;;;8.30;3.70;;;;;;;6.16;65.59;98875.02;105695;1254;61491;-62
2024/01/18 07:30:23;;;;;;;7.30;3.50;;;;;;;6.18;65.55;98874.97;105893;1256;64226;-57
2024/01/18 07:32:51;;;;;;;13.30;9.40;;;;;;;6.20;65.60;98878.27;105148;1256;60611;-56
2024/01/18 07:35:19;;;;;;;10.20;3.80;;;;;;;6.22;65.50;98878.83;105178;1259;60377;-62
2024/01/18 07:37:46;;;;;;;7.70;2.90;;;;;;;6.20;65.51;98876.21;105185;1258;64972;-58
2024/01/18 07:40:14;;;;;;;7.70;3.20;;;;;;;6.23;65.32;98873.86;105142;1254;61350;-56
2024/01/18 07:42:43;;;;;;;9.80;3.80;;;;;;;6.28;65.20;98865.23;105258;1254;62453;-62
2024/01/18 07:45:14;;;;;;;14.20;9.00;;;;;;;6.37;65.08;98860.33;105299;1261;60666;-58
2024/01/18 07:47:43;;;;;;;8.00;3.50;;;;;;;6.40;65.05;98857.61;105349;1258;60498;-55
2024/01/18 07:50:11;;;;;;;14.00;9.20;;;;;;;6.39;65.00;98854.36;105293;1254;64932;-56
2024/01/18 07:52:58;;;;;;;10.00;4.00;;;;;;;6.38;64.91;98862.25;105254;1254;62071;-59
2024/01/18 07:55:26;;;;;;;10.90;4.90;;;;;;;6.34;64.88;98862.59;105217;1255;62534;-56
2024/01/18 07:57:54;;;;;;;10.80;4.70;;;;;;;6.32;64.96;98858.43;105140;1254;60718;-56
2024/01/18 08:00:22;;;;;;;17.10;10.60;;;;;;;6.35;64.89;98859.70;105058;1256;59511;-56
2024/01/18 08:02:50;;;;;;;51.40;23.30;;;;;;;6.46;64.68;98860.15;105097;1255;65932;-57
2024/01/18 08:05:18;;;;;;;17.80;7.50;;;;;;;6.55;64.49;98860.34;105178;1258;61485;-56
2024/01/18 08:07:45;;;;;;;14.00;7.00;;;;;;;6.59;64.45;98859.22;105121;1254;62660;-55
2024/01/18 08:10:13;;;;;;;13.90;5.80;;;;;;;6.60;64.42;98861.98;105110;1260;60419;-57
2024/01/18 08:12:42;;;;;;;14.70;11.00;;;;;;;6.60;64.30;98851.02;105227;1254;60613;-54
2024/01/18 08:15:11;;;;;;;7.50;3.50;;;;;;;6.57;64.24;98840.10;105295;1254;65494;-57
2024/01/18 08:17:39;;;;;;;7.30;3.60;;;;;;;6.56;64.15;98837.57;105270;1260;62423;-58
2024/01/18 08:20:12;;;;;;;9.10;3.80;;;;;;;6.59;63.97;98832.27;105381;1254;62466;-58
2024/01/18 08:22:42;;;;;;;7.00;2.70;;;;;;;6.65;63.96;98823.90;105397;1254;60536;-56
2024/01/18 08:25:10;;;;;;;14.00;8.80;;;;;;;6.67;63.91;98821.92;105307;1254;60349;-59
2024/01/18 08:27:39;;;;;;;13.70;9.50;;;;;;;6.70;63.78;98818.73;105390;1254;63720;-55
2024/01/18 08:30:07;;;;;;;8.90;3.50;;;;;;;6.69;63.73;98820.16;105581;1254;61492;-55
2024/01/18 08:32:35;;;;;;;7.70;3.50;;;;;;;6.63;63.83;98814.08;105508;1254;64246;-54
2024/01/18 08:35:06;;;;;;;7.70;3.00;;;;;;;6.64;63.63;98817.15;105446;1257;63733;-55
2024/01/18 08:37:37;;;;;;;14.00;9.30;;;;;;;6.68;63.42;98816.28;105443;1255;60427;-54
2024/01/18 08:40:08;;;;;;;8.50;4.50;;;;;;;6.73;63.52;98820.56;105515;1256;76067;-55
2024/01/18 08:42:38;;;;;;;14.40;10.20;;;;;;;6.74;63.42;98812.78;105424;1257;61387;-54
2024/01/18 08:45:06;;;;;;;9.60;3.90;;;;;;;6.73;63.45;98801.42;105133;1256;63670;-55
2024/01/18 08:47:33;;;;;;;12.60;9.70;;;;;;;6.71;63.35;98797.55;105445;1260;60562;-56
2024/01/18 08:50:01;;;;;;;9.90;3.30;;;;;;;6.68;63.40;98791.88;105118;1259;60557;-57
2024/01/18 08:52:29;;;;;;;8.80;3.80;;;;;;;6.71;63.31;98785.03;105648;1255;63844;-55
2024/01/18 08:54:57;;;;;;;12.70;9.00;;;;;;;6.75;63.21;98786.19;105069;1254;63612;-55
2024/01/18 08:57:25;;;;;;;8.60;3.60;;;;;;;6.79;63.14;98785.52;105295;1254;64145;-56
2024/01/18 08:59:53;;;;;;;14.30;9.60;;;;;;;6.79;63.07;98790.23;105733;1256;60444;-57
2024/01/18 09:02:20;;;;;;;7.90;4.60;;;;;;;6.77;63.18;98792.52;105132;1254;60621;-55
2024/01/18 09:04:50;;;;;;;12.30;5.10;;;;;;;6.75;63.19;98795.64;105199;1254;76080;-56
2024/01/18 09:07:19;;;;;;;16.30;10.90;;;;;;;6.71;63.23;98792.32;105246;1254;62619;-56
2024/01/18 09:09:47;;;;;;;15.40;5.40;;;;;;;6.74;63.11;98791.39;105305;1254;64871;-55
2024/01/18 09:12:15;;;;;;;13.20;5.70;;;;;;;6.77;63.04;98774.32;105231;1259;60552;-57
2024/01/18 09:14:44;;;;;;;22.90;17.30;;;;;;;6.83;62.92;98770.53;105271;1253;61264;-56
2024/01/18 09:17:12;;;;;;;10.30;4.90;;;;;;;6.85;62.97;98774.68;105539;1254;64060;-57
2024/01/18 09:19:41;;;;;;;17.40;13.20;;;;;;;6.84;62.93;98779.94;105181;1260;60581;-56
2024/01/18 09:22:09;;;;;;;13.60;5.00;;;;;;;6.82;62.96;98779.60;105154;1255;63732;-57
2024/01/18 09:24:37;;;;;;;16.20;11.80;;;;;;;6.79;63.03;98769.61;105436;1259;61090;-56
2024/01/18 09:27:05;;;;;;;8.50;3.60;;;;;;;6.80;62.97;98763.42;105155;1259;60495;-55
2024/01/18 09:29:32;;;;;;;8.20;3.40;;;;;;;6.84;62.70;98760.42;105105;1254;65866;-55
2024/01/18 09:32:00;;;;;;;10.40;4.20;;;;;;;6.90;62.63;98757.47;105107;1256;60496;-56
2024/01/18 09:34:28;;;;;;;15.70;10.90;;;;;;;6.93;62.59;98752.16;105671;1254;74894;-59
2024/01/18 09:36:57;;;;;;;12.10;6.10;;;;;;;6.92;62.61;98747.27;105703;1257;61447;-56
2024/01/18 09:39:25;;;;;;;12.60;4.80;;;;;;;6.90;62.72;98747.27;105174;1254;61345;-59
2024/01/18 09:41:53;;;;;;;14.60;10.60;;;;;;;6.90;62.63;98753.82;105155;1259;65471;-56
2024/01/18 09:44:32;;;;;;;8.80;4.20;;;;;;;6.86;62.62;98749.48;105108;1256;62086;-58
2024/01/18 09:47:03;;;;;;;9.30;4.50;;;;;;;6.87;62.56;98745.70;105104;1256;64551;-56
2024/01/18 09:49:33;;;;;;;8.90;4.00;;;;;;;6.94;62.49;98740.59;105533;1254;61730;-55
2024/01/18 09:52:04;;;;;;;15.90;11.50;;;;;;;6.97;62.36;98745.36;105019;1260;60461;-58
2024/01/18 09:54:33;;;;;;;11.60;4.80;;;;;;;6.95;62.43;98740.63;105127;1260;65050;-59
2024/01/18 09:57:06;;;;;;;17.50;12.50;;;;;;;6.94;62.49;98736.78;105063;1254;63678;-58
2024/01/18 09:59:35;;;;;;;9.20;4.70;;;;;;;6.93;62.47;98740.98;106876;1257;63878;-59
2024/01/18 10:02:03;;;;;;;13.30;6.40;;;;;;;6.90;62.43;98736.58;106411;1254;60415;-56
2024/01/18 10:04:32;;;;;;;15.90;11.00;;;;;;;6.88;62.50;98731.67;105445;1254;60991;-57
2024/01/18 10:06:59;;;;;;;8.90;3.80;;;;;;;6.95;62.39;98725.87;105073;1260;65829;-59
2024/01/18 10:09:29;;;;;;;15.80;11.80;;;;;;;7.03;62.21;98726.02;105732;1256;61771;-58
2024/01/18 10:11:57;;;;;;;9.60;5.30;;;;;;;7.05;62.17;98709.96;105031;1260;71334;-58
2024/01/18 10:14:42;;;;;;;11.20;5.60;;;;;;;7.03;62.22;98717.62;105186;1259;60511;-55
2024/01/18 10:17:18;;;;;;;15.60;11.50;;;;;;;7.00;62.26;98709.14;104983;1254;60532;-56
2024/01/18 10:19:49;;;;;;;14.90;5.60;;;;;;;6.97;62.24;98704.89;105286;1259;76337;-56
2024/01/18 10:22:18;;;;;;;11.60;4.90;;;;;;;6.99;62.22;98701.74;105257;1254;62558;-54
2024/01/18 10:24:46;;;;;;;17.10;12.20;;;;;;;7.05;62.07;98697.88;105388;1259;74062;-54
2024/01/18 10:27:14;;;;;;;12.20;5.50;;;;;;;7.12;62.10;98699.02;105127;1260;60480;-56
2024/01/18 10:29:41;;;;;;;16.20;11.20;;;;;;;7.15;62.11;98702.89;105249;1254;62259;-56
2024/01/18 10:32:09;;;;;;;13.20;4.20;;;;;;;7.16;61.97;98701.73;105246;1259;65311;-57
2024/01/18 10:34:37;;;;;;;19.60;13.10;;;;;;;7.15;62.00;98699.58;105380;1260;60451;-54
2024/01/18 10:37:08;;;;;;;14.40;6.80;;;;;;;7.13;62.03;98699.47;105543;1254;75295;-54
2024/01/18 10:39:39;;;;;;;19.80;13.60;;;;;;;7.10;62.06;98687.84;105602;1254;60503;-54
2024/01/18 10:42:08;;;;;;;8.80;4.60;;;;;;;7.07;61.94;98683.56;105442;1254;60486;-58
2024/01/18 10:44:44;;;;;;;10.50;5.80;;;;;;;7.11;61.83;98677.88;105501;1254;65988;-57
2024/01/18 10:47:13;;;;;;;12.90;6.20;;;;;;;7.18;61.76;98674.58;105312;1259;61717;-56
2024/01/18 10:49:40;;;;;;;22.20;13.70;;;;;;;7.23;61.75;98676.52;105339;1255;74894;-60
2024/01/18 10:52:10;;;;;;;12.00;4.60;;;;;;;7.22;61.67;98673.16;105092;1261;60333;-56
2024/01/18 10:54:39;;;;;;;18.60;12.40;;;;;;;7.17;61.75;98669.07;105400;1254;60488;-59
2024/01/18 10:57:21;;;;;;;11.00;5.70;;;;;;;7.12;61.86;98658.55;105118;1254;65385;-57
2024/01/18 10:59:51;;;;;;;17.10;12.70;;;;;;;7.07;62.04;98656.52;105255;1260;60445;-57
2024/01/18 11:02:20;;;;;;;10.40;5.90;;;;;;;7.05;62.11;98647.66;105856;1255;64876;-55
2024/01/18 11:04:48;;;;;;;18.50;12.20;;;;;;;7.11;61.99;98650.10;105061;1254;63086;-57
2024/01/18 11:07:19;;;;;;;15.30;4.30;;;;;;;7.17;61.97;98644.45;105202;1256;60482;-55
2024/01/18 11:09:47;;;;;;;11.20;5.10;;;;;;;7.23;61.89;98641.58;105201;1260;65944;-58
2024/01/18 11:12:15;;;;;;;19.30;12.50;;;;;;;7.25;61.85;98638.95;105094;1254;60601;-56
2024/01/18 11:14:43;;;;;;;18.90;13.00;;;;;;;7.24;61.86;98633.71;105309;1260;65905;-57
2024/01/18 11:17:12;;;;;;;12.00;4.30;;;;;;;7.16;61.88;98626.75;105120;1259;62163;-55
2024/01/18 11:19:44;;;;;;;12.60;5.30;;;;;;;7.12;61.94;98618.92;105355;1255;61077;-57
2024/01/18 11:22:26;;;;;;;19.30;12.50;;;;;;;7.09;61.88;98622.71;105287;1259;67145;-58
2024/01/18 11:25:09;;;;;;;11.80;5.00;;;;;;;7.06;61.91;98621.11;105790;1259;60491;-58
2024/01/18 11:27:38;;;;;;;11.60;4.70;;;;;;;7.09;61.92;98622.92;105589;1254;65815;-55
2024/01/18 11:30:31;;;;;;;18.30;12.50;;;;;;;7.14;61.96;98622.73;105379;1260;60562;-60
2024/01/18 11:32:59;;;;;;;11.60;6.40;;;;;;;7.25;61.81;98611.65;105769;1256;60334;-55
2024/01/18 11:35:26;;;;;;;12.80;5.80;;;;;;;7.29;61.79;98607.97;105110;1254;65914;-53